Metar Aviation Weather Data KPWM Portland International Jetport

9°F Temp
3°F Dewpoint
78% Humidity
Temperature
15 MPH
24 KM/H
13 KTS
340°
North North
West

Wind Speed
Snow Showers
Pressure 993.2 (hPa) - 29.33 (in)
Visibility 0.7 (mi) - 1 (km)

Current Conditions
KPWM
Portland International Jetport
Metar :KPWM 202051Z 34013G22KT 3/4SM -SNPL BR OVC016 M13/M16 A2933 RMK AO2 SLP932 P0000 60009 T11281156 55033 $
Sun 20th January 15:51 pm

Portland International Jetport
  Metar Aviation API Data Provided by https://www.checkwx.com/ PHP scripts by weather34.com ©2019